createdAt,value
2022-12-09T00:01:19.894Z,3.40
2022-12-09T00:03:47.233Z,3.40
2022-12-09T00:06:25.689Z,3.40
2022-12-09T00:08:53.102Z,3.50
2022-12-09T00:11:20.957Z,3.40
2022-12-09T00:13:52.757Z,3.40
2022-12-09T00:16:20.181Z,3.40
2022-12-09T00:18:47.445Z,3.40
2022-12-09T00:21:20.475Z,3.40
2022-12-09T00:23:48.316Z,3.30
2022-12-09T00:26:16.405Z,3.40
2022-12-09T00:28:43.680Z,3.40
2022-12-09T00:31:14.251Z,3.40
2022-12-09T00:33:41.439Z,3.40
2022-12-09T00:36:16.538Z,3.40
2022-12-09T00:38:43.939Z,3.40
2022-12-09T00:41:11.268Z,3.40
2022-12-09T00:43:38.194Z,3.40
2022-12-09T00:46:05.363Z,3.50
2022-12-09T00:48:34.485Z,3.50
2022-12-09T00:51:02.350Z,3.50
2022-12-09T00:53:29.322Z,3.50
2022-12-09T00:55:56.407Z,3.50
2022-12-09T00:58:23.961Z,3.40
2022-12-09T01:00:53.611Z,3.40
2022-12-09T01:03:20.836Z,3.40
2022-12-09T01:05:48.099Z,3.40
2022-12-09T01:08:16.260Z,3.40
2022-12-09T01:10:44.785Z,3.30
2022-12-09T01:13:13.343Z,3.30
2022-12-09T01:15:40.929Z,3.30
2022-12-09T01:18:08.114Z,3.30
2022-12-09T01:20:35.311Z,3.30
2022-12-09T01:23:02.652Z,3.30
2022-12-09T01:25:29.696Z,3.30
2022-12-09T01:27:56.680Z,3.30
2022-12-09T01:30:23.887Z,3.30
2022-12-09T01:32:50.995Z,3.30
2022-12-09T01:35:18.310Z,3.30
2022-12-09T01:37:45.236Z,3.30
2022-12-09T01:40:16.868Z,3.30
2022-12-09T01:42:44.438Z,3.40
2022-12-09T01:45:20.711Z,3.40
2022-12-09T01:47:57.080Z,3.50
2022-12-09T01:50:26.691Z,3.50
2022-12-09T01:52:55.664Z,3.50
2022-12-09T01:55:24.596Z,3.50
2022-12-09T01:57:52.999Z,3.40
2022-12-09T02:00:20.929Z,3.40
2022-12-09T02:02:50.583Z,3.40
2022-12-09T02:05:20.822Z,3.50
2022-12-09T02:07:53.792Z,3.50
2022-12-09T02:10:21.971Z,3.50
2022-12-09T02:13:16.075Z,3.50
2022-12-09T02:15:46.862Z,3.50
2022-12-09T02:18:42.891Z,3.50
2022-12-09T02:21:15.440Z,3.50
2022-12-09T02:23:55.634Z,3.50
2022-12-09T02:26:32.707Z,3.50
2022-12-09T02:29:30.573Z,3.40
2022-12-09T02:32:06.809Z,3.50
2022-12-09T02:34:39.066Z,3.40
2022-12-09T02:37:12.155Z,3.40
2022-12-09T02:39:53.908Z,3.40
2022-12-09T02:42:27.767Z,3.30
2022-12-09T02:44:58.410Z,3.20
2022-12-09T02:47:29.824Z,3.20
2022-12-09T02:50:06.033Z,3.20
2022-12-09T02:52:35.622Z,3.20
2022-12-09T02:55:07.657Z,3.20
2022-12-09T02:57:37.212Z,3.20
2022-12-09T03:00:06.710Z,3.20
2022-12-09T03:02:39.690Z,3.30
2022-12-09T03:05:15.512Z,3.20
2022-12-09T03:07:47.925Z,3.20
2022-12-09T03:10:36.923Z,3.10
2022-12-09T03:13:38.345Z,3.10
2022-12-09T03:16:47.134Z,3.10
2022-12-09T03:19:27.932Z,3.10
2022-12-09T03:22:00.533Z,3.10
2022-12-09T03:24:47.511Z,3.00
2022-12-09T03:27:20.451Z,3.00
2022-12-09T03:29:49.857Z,3.00
2022-12-09T03:32:19.650Z,3.00
2022-12-09T03:34:50.421Z,3.00
2022-12-09T03:37:20.184Z,2.90
2022-12-09T03:39:49.554Z,2.90
2022-12-09T03:42:21.441Z,2.90
2022-12-09T03:45:00.438Z,2.90
2022-12-09T03:47:31.777Z,2.90
2022-12-09T03:49:59.305Z,2.80
2022-12-09T03:52:44.404Z,2.80
2022-12-09T03:55:23.184Z,2.80
2022-12-09T03:57:55.204Z,2.80
2022-12-09T04:00:22.212Z,2.90
2022-12-09T04:02:49.945Z,2.90
2022-12-09T04:05:17.166Z,2.90
2022-12-09T04:07:44.336Z,2.90
2022-12-09T04:10:12.951Z,2.90
2022-12-09T04:12:40.479Z,2.90
2022-12-09T04:15:08.348Z,2.90
2022-12-09T04:17:35.272Z,3.00
2022-12-09T04:20:02.455Z,3.00
2022-12-09T04:22:30.100Z,3.00
2022-12-09T04:24:57.319Z,3.00
2022-12-09T04:27:24.550Z,2.90
2022-12-09T04:29:51.442Z,2.90
2022-12-09T04:32:18.492Z,2.90
2022-12-09T04:34:45.578Z,2.90
2022-12-09T04:37:13.059Z,2.80
2022-12-09T04:39:41.858Z,2.70
2022-12-09T04:42:08.866Z,2.60
2022-12-09T04:44:35.838Z,2.60
2022-12-09T04:47:03.011Z,2.50
2022-12-09T04:49:30.957Z,2.40
2022-12-09T04:51:58.211Z,2.40
2022-12-09T04:54:25.417Z,2.30
2022-12-09T04:56:52.656Z,2.20
2022-12-09T04:59:19.678Z,2.10
2022-12-09T05:01:47.069Z,2.00
2022-12-09T05:04:14.179Z,1.90
2022-12-09T05:06:41.663Z,1.90
2022-12-09T05:09:12.665Z,1.80
2022-12-09T05:11:40.962Z,1.80
2022-12-09T05:14:07.988Z,1.70
2022-12-09T05:16:35.070Z,1.70
2022-12-09T05:19:02.456Z,1.60
2022-12-09T05:21:30.103Z,1.60
2022-12-09T05:23:58.402Z,1.60
2022-12-09T05:26:25.895Z,1.60
2022-12-09T05:28:53.121Z,1.60
2022-12-09T05:31:22.883Z,1.70
2022-12-09T05:33:51.346Z,1.70
2022-12-09T05:36:22.356Z,1.80
2022-12-09T05:38:53.345Z,1.90
2022-12-09T05:41:21.040Z,1.90
2022-12-09T05:43:48.454Z,2.00
2022-12-09T05:46:16.582Z,2.00
2022-12-09T05:48:44.306Z,2.00
2022-12-09T05:51:16.654Z,2.10
2022-12-09T05:53:44.429Z,2.10
2022-12-09T05:56:16.159Z,2.10
2022-12-09T05:58:43.326Z,2.10
2022-12-09T06:01:10.867Z,2.10
2022-12-09T06:03:38.745Z,2.10
2022-12-09T06:06:11.474Z,2.00
2022-12-09T06:08:39.465Z,2.00
2022-12-09T06:11:21.025Z,2.00
2022-12-09T06:13:49.867Z,2.00
2022-12-09T06:16:21.919Z,2.00
2022-12-09T06:18:49.424Z,2.00
2022-12-09T06:21:18.641Z,2.00
2022-12-09T06:23:46.271Z,2.00
2022-12-09T06:26:25.480Z,1.90
2022-12-09T06:28:53.732Z,1.90
2022-12-09T06:31:22.087Z,1.80
2022-12-09T06:33:58.472Z,1.70
2022-12-09T06:36:29.185Z,1.60
2022-12-09T06:38:58.812Z,1.60
2022-12-09T06:41:27.729Z,1.50
2022-12-09T06:43:57.759Z,1.40
2022-12-09T06:46:26.115Z,1.30
2022-12-09T06:48:55.627Z,1.30
2022-12-09T06:51:23.796Z,1.20
2022-12-09T06:53:51.026Z,1.20
2022-12-09T06:56:19.050Z,1.10
2022-12-09T06:58:47.293Z,1.10
2022-12-09T07:01:23.242Z,1.00
2022-12-09T07:03:53.329Z,1.00
2022-12-09T07:06:28.026Z,0.90
2022-12-09T07:08:57.333Z,0.90
2022-12-09T07:11:24.807Z,0.90
2022-12-09T07:13:52.225Z,0.90
2022-12-09T07:16:20.203Z,0.90
2022-12-09T07:18:47.723Z,0.90
2022-12-09T07:21:18.795Z,0.90
2022-12-09T07:23:47.212Z,0.90
2022-12-09T07:26:14.989Z,1.00
2022-12-09T07:28:43.578Z,1.10
2022-12-09T07:31:25.842Z,1.20
2022-12-09T07:33:55.425Z,1.20
2022-12-09T07:36:25.021Z,1.30
2022-12-09T07:39:04.200Z,1.40
2022-12-09T07:41:31.692Z,1.50
2022-12-09T07:43:59.201Z,1.60
2022-12-09T07:46:29.293Z,1.60
2022-12-09T07:48:58.379Z,1.70
2022-12-09T07:51:26.710Z,1.70
2022-12-09T07:53:54.213Z,1.80
2022-12-09T07:56:22.393Z,1.90
2022-12-09T07:58:51.256Z,1.90
2022-12-09T08:01:23.693Z,1.90
2022-12-09T08:03:51.491Z,2.00
2022-12-09T08:06:24.454Z,2.00
2022-12-09T08:08:52.006Z,2.10
2022-12-09T08:11:25.702Z,2.10
2022-12-09T08:13:55.760Z,2.20
2022-12-09T08:16:23.359Z,2.20
2022-12-09T08:18:52.550Z,2.20
2022-12-09T08:21:25.625Z,2.30
2022-12-09T08:23:54.959Z,2.30
2022-12-09T08:26:24.244Z,2.30
2022-12-09T08:28:52.525Z,2.40
2022-12-09T08:31:22.510Z,2.40
2022-12-09T08:33:50.855Z,2.40
2022-12-09T08:36:24.043Z,2.50
2022-12-09T08:38:51.161Z,2.60
2022-12-09T08:41:37.500Z,2.70
2022-12-09T08:44:17.238Z,2.80
2022-12-09T08:46:53.230Z,2.80
2022-12-09T08:49:22.451Z,2.90
2022-12-09T08:51:51.801Z,3.00
2022-12-09T08:54:19.801Z,3.00
2022-12-09T08:56:55.140Z,3.10
2022-12-09T08:59:23.039Z,3.10
2022-12-09T09:01:50.376Z,3.20
2022-12-09T09:04:19.706Z,3.10
2022-12-09T09:06:50.178Z,3.20
2022-12-09T09:09:18.510Z,3.20
2022-12-09T09:11:45.867Z,3.20
2022-12-09T09:14:14.207Z,3.30
2022-12-09T09:16:44.270Z,3.30
2022-12-09T09:19:25.986Z,3.40
2022-12-09T09:21:54.078Z,3.50
2022-12-09T09:24:23.832Z,3.60
2022-12-09T09:27:06.098Z,3.70
2022-12-09T09:29:33.020Z,3.70
2022-12-09T09:32:00.295Z,3.80
2022-12-09T09:34:28.298Z,3.80
2022-12-09T09:36:56.717Z,3.80
2022-12-09T09:39:24.205Z,3.70
2022-12-09T09:42:04.578Z,3.80
2022-12-09T09:44:47.769Z,4.00
2022-12-09T09:47:24.237Z,4.10
2022-12-09T09:50:03.560Z,4.10
2022-12-09T09:52:31.755Z,4.00
2022-12-09T09:54:58.787Z,3.90
2022-12-09T09:57:32.687Z,3.80
2022-12-09T10:00:09.739Z,3.70
2022-12-09T10:03:02.539Z,3.80
2022-12-09T10:05:59.654Z,3.70
2022-12-09T10:09:03.610Z,3.60
2022-12-09T10:11:49.388Z,3.60
2022-12-09T10:14:34.404Z,3.60
2022-12-09T10:17:13.958Z,3.80
2022-12-09T10:19:54.631Z,4.10
2022-12-09T10:22:25.655Z,4.40
2022-12-09T10:24:56.513Z,4.80
2022-12-09T10:27:47.910Z,5.20
2022-12-09T10:30:19.829Z,5.40
2022-12-09T10:32:47.563Z,5.50
2022-12-09T10:35:16.835Z,5.30
2022-12-09T10:37:44.595Z,5.10
2022-12-09T10:40:12.091Z,4.90
2022-12-09T10:43:08.818Z,4.70
2022-12-09T10:48:49.020Z,4.40
2022-12-09T10:51:20.864Z,4.30
2022-12-09T10:54:10.637Z,4.40
2022-12-09T10:57:02.849Z,4.40
2022-12-09T10:59:31.345Z,4.50
2022-12-09T11:01:59.975Z,4.60
2022-12-09T11:04:40.646Z,4.70
2022-12-09T11:07:07.949Z,4.80
2022-12-09T11:09:37.847Z,4.80
2022-12-09T11:12:07.556Z,4.80
2022-12-09T11:14:36.083Z,4.90
2022-12-09T11:17:12.854Z,5.00
2022-12-09T11:19:40.916Z,5.00
2022-12-09T11:22:23.258Z,4.80
2022-12-09T11:24:53.870Z,4.50
2022-12-09T11:27:33.229Z,4.40
2022-12-09T11:30:33.342Z,4.30
2022-12-09T11:33:05.984Z,4.30
2022-12-09T11:35:36.442Z,4.40
2022-12-09T11:38:23.647Z,4.50
2022-12-09T11:41:09.474Z,4.60
2022-12-09T11:43:46.401Z,4.70
2022-12-09T11:46:13.176Z,4.80
2022-12-09T11:48:56.864Z,4.80
2022-12-09T11:51:37.531Z,4.80
2022-12-09T11:54:31.621Z,4.70
2022-12-09T11:57:00.258Z,4.60
2022-12-09T11:59:38.321Z,4.50
2022-12-09T12:02:28.480Z,4.50
2022-12-09T12:05:22.034Z,4.50
2022-12-09T12:08:26.715Z,4.60
2022-12-09T12:10:57.327Z,4.50
2022-12-09T12:13:45.453Z,4.40
2022-12-09T12:16:39.266Z,4.40
2022-12-09T12:19:20.215Z,4.30
2022-12-09T12:21:46.949Z,4.20
2022-12-09T12:24:22.095Z,4.20
2022-12-09T12:27:07.083Z,4.10
2022-12-09T12:29:55.948Z,4.00
2022-12-09T12:33:40.753Z,4.00
2022-12-09T12:36:14.379Z,4.00
2022-12-09T12:38:53.222Z,3.90
2022-12-09T12:41:37.038Z,3.80
2022-12-09T12:45:00.646Z,3.90
2022-12-09T12:47:39.894Z,4.00
2022-12-09T12:50:15.834Z,4.10
2022-12-09T12:53:13.469Z,4.10
2022-12-09T12:56:08.169Z,4.00
2022-12-09T12:58:45.788Z,4.10
2022-12-09T13:01:31.484Z,4.10
2022-12-09T13:04:06.995Z,4.10
2022-12-09T13:06:58.547Z,4.10
2022-12-09T13:09:42.097Z,3.80
2022-12-09T13:12:50.449Z,3.70
2022-12-09T13:15:19.963Z,3.80
2022-12-09T13:17:48.350Z,3.80
2022-12-09T13:20:31.310Z,3.80
2022-12-09T13:23:29.555Z,3.90
2022-12-09T13:25:57.281Z,4.00
2022-12-09T13:28:48.156Z,4.10
2022-12-09T13:31:19.147Z,4.00
2022-12-09T13:33:55.194Z,4.00
2022-12-09T13:36:28.400Z,4.00
2022-12-09T13:38:57.406Z,3.90
2022-12-09T13:41:27.320Z,3.80
2022-12-09T13:43:57.867Z,3.90
2022-12-09T13:46:28.035Z,4.00
2022-12-09T13:48:55.487Z,4.10
2022-12-09T13:51:23.760Z,4.10
2022-12-09T13:53:59.911Z,4.30
2022-12-09T13:56:36.040Z,4.40
2022-12-09T13:59:25.833Z,4.60
2022-12-09T14:02:19.447Z,4.70
2022-12-09T14:05:26.248Z,4.60
2022-12-09T14:08:03.411Z,4.50
2022-12-09T14:10:45.331Z,4.40
2022-12-09T14:13:27.826Z,4.40
2022-12-09T14:16:22.050Z,4.30
2022-12-09T14:18:49.241Z,4.10
2022-12-09T14:21:19.086Z,4.10
2022-12-09T14:24:07.841Z,4.10
2022-12-09T14:26:43.522Z,4.10
2022-12-09T14:29:11.099Z,4.10
2022-12-09T14:31:56.025Z,4.20
2022-12-09T14:34:31.182Z,4.10
2022-12-09T14:37:27.219Z,4.10
2022-12-09T14:40:25.088Z,4.00
2022-12-09T14:43:05.068Z,4.00
2022-12-09T14:45:31.912Z,3.90
2022-12-09T14:47:59.542Z,3.80
2022-12-09T14:50:29.013Z,3.80
2022-12-09T14:53:02.668Z,3.70
2022-12-09T14:55:33.096Z,3.70
2022-12-09T14:58:01.790Z,3.60
2022-12-09T15:00:33.478Z,3.60
2022-12-09T15:06:04.827Z,3.50
2022-12-09T15:08:36.011Z,3.40
2022-12-09T15:11:21.822Z,3.30
2022-12-09T15:13:52.080Z,3.30
2022-12-09T15:16:22.022Z,3.20
2022-12-09T15:18:49.881Z,3.10
2022-12-09T15:21:30.374Z,3.10
2022-12-09T15:23:59.360Z,3.00
2022-12-09T15:26:33.609Z,2.90
2022-12-09T15:29:01.379Z,2.90
2022-12-09T15:31:30.844Z,2.80
2022-12-09T15:34:00.886Z,2.70
2022-12-09T15:36:38.401Z,2.70
2022-12-09T15:39:25.493Z,2.60
2022-12-09T15:42:07.106Z,2.40
2022-12-09T15:44:53.312Z,2.30
2022-12-09T15:47:20.091Z,2.20
2022-12-09T15:49:57.344Z,2.20
2022-12-09T15:52:28.886Z,2.10
2022-12-09T15:54:57.818Z,2.10
2022-12-09T15:57:28.077Z,2.00
2022-12-09T15:59:58.354Z,1.90
2022-12-09T16:02:32.873Z,1.90
2022-12-09T16:05:03.767Z,1.90
2022-12-09T16:07:32.863Z,1.90
2022-12-09T16:10:07.274Z,1.80
2022-12-09T16:12:35.299Z,1.80
2022-12-09T16:15:03.533Z,1.80
2022-12-09T16:17:34.936Z,1.80
2022-12-09T16:20:22.445Z,1.80
2022-12-09T16:22:50.224Z,1.70
2022-12-09T16:25:25.805Z,1.60
2022-12-09T16:28:07.067Z,1.60
2022-12-09T16:30:44.730Z,1.50
2022-12-09T16:33:21.281Z,1.50
2022-12-09T16:36:02.305Z,1.50
2022-12-09T16:38:30.666Z,1.50
2022-12-09T16:41:00.457Z,1.40
2022-12-09T16:43:28.689Z,1.40
2022-12-09T16:45:59.616Z,1.40
2022-12-09T16:48:28.240Z,1.50
2022-12-09T16:51:11.420Z,1.50
2022-12-09T16:53:43.455Z,1.50
2022-12-09T16:56:28.659Z,1.50
2022-12-09T16:58:56.657Z,1.50
2022-12-09T17:01:36.719Z,1.50
2022-12-09T17:04:16.553Z,1.50
2022-12-09T17:06:43.372Z,1.40
2022-12-09T17:09:12.035Z,1.40
2022-12-09T17:11:41.812Z,1.30
2022-12-09T17:14:11.072Z,1.30
2022-12-09T17:16:38.223Z,1.30
2022-12-09T17:19:05.785Z,1.30
2022-12-09T17:21:32.620Z,1.20
2022-12-09T17:23:59.797Z,1.20
2022-12-09T17:26:26.628Z,1.10
2022-12-09T17:28:58.292Z,1.10
2022-12-09T17:31:28.421Z,1.00
2022-12-09T17:33:57.551Z,1.00
2022-12-09T17:36:24.689Z,1.00
2022-12-09T17:38:51.668Z,1.00
2022-12-09T17:41:23.360Z,0.90
2022-12-09T17:43:50.529Z,0.90
2022-12-09T17:46:17.482Z,0.90
2022-12-09T17:48:44.555Z,0.90
2022-12-09T17:51:14.128Z,0.80
2022-12-09T17:53:42.838Z,0.80
2022-12-09T17:56:18.098Z,0.80
2022-12-09T17:58:44.925Z,0.80
2022-12-09T18:01:21.412Z,0.70
2022-12-09T18:03:57.735Z,0.70
2022-12-09T18:06:27.656Z,0.70
2022-12-09T18:08:54.865Z,0.70
2022-12-09T18:11:22.507Z,0.70
2022-12-09T18:13:50.631Z,0.70
2022-12-09T18:16:18.488Z,0.60
2022-12-09T18:18:45.868Z,0.60
2022-12-09T18:21:16.031Z,0.60
2022-12-09T18:23:44.018Z,0.60
2022-12-09T18:26:14.112Z,0.60
2022-12-09T18:28:41.820Z,0.60
2022-12-09T18:31:11.119Z,0.50
2022-12-09T18:33:39.060Z,0.60
2022-12-09T18:36:14.305Z,0.50
2022-12-09T18:38:41.650Z,0.50
2022-12-09T18:41:19.870Z,0.50
2022-12-09T18:43:48.639Z,0.50
2022-12-09T18:46:25.728Z,0.50
2022-12-09T18:49:08.826Z,0.50
2022-12-09T18:51:36.045Z,0.50
2022-12-09T18:54:03.875Z,0.50
2022-12-09T18:56:31.310Z,0.50
2022-12-09T18:59:06.396Z,0.50
2022-12-09T19:01:38.805Z,0.50
2022-12-09T19:04:07.157Z,0.50
2022-12-09T19:06:36.793Z,0.50
2022-12-09T19:09:06.673Z,0.50
2022-12-09T19:11:36.032Z,0.50
2022-12-09T19:14:05.287Z,0.40
2022-12-09T19:16:32.451Z,0.50
2022-12-09T19:19:03.826Z,0.40
2022-12-09T19:21:34.844Z,0.40
2022-12-09T19:24:02.015Z,0.40
2022-12-09T19:26:33.066Z,0.40
2022-12-09T19:29:02.998Z,0.40
2022-12-09T19:31:32.485Z,0.40
2022-12-09T19:34:02.808Z,0.40
2022-12-09T19:36:31.396Z,0.40
2022-12-09T19:38:58.388Z,0.40
2022-12-09T19:41:25.165Z,0.40
2022-12-09T19:43:59.098Z,0.40
2022-12-09T19:46:26.630Z,0.40
2022-12-09T19:48:54.278Z,0.40
2022-12-09T19:51:22.413Z,0.40
2022-12-09T19:53:52.190Z,0.40
2022-12-09T19:56:19.955Z,0.40
2022-12-09T19:58:48.046Z,0.40
2022-12-09T20:01:19.387Z,0.40
2022-12-09T20:03:49.153Z,0.40
2022-12-09T20:06:20.037Z,0.30
2022-12-09T20:08:47.311Z,0.40
2022-12-09T20:11:22.721Z,0.40
2022-12-09T20:13:50.345Z,0.40
2022-12-09T20:16:22.284Z,0.40
2022-12-09T20:18:50.295Z,0.30
2022-12-09T20:21:18.701Z,0.30
2022-12-09T20:23:46.680Z,0.30
2022-12-09T20:26:14.807Z,0.30
2022-12-09T20:28:43.770Z,0.20
2022-12-09T20:31:14.312Z,0.20
2022-12-09T20:33:41.732Z,0.20
2022-12-09T20:36:15.565Z,0.20
2022-12-09T20:38:43.342Z,0.20
2022-12-09T20:41:13.095Z,0.20
2022-12-09T20:43:41.888Z,0.20
2022-12-09T20:46:14.246Z,0.20
2022-12-09T20:48:41.929Z,0.20
2022-12-09T20:51:15.595Z,0.20
2022-12-09T20:53:43.762Z,0.20
2022-12-09T20:56:11.869Z,0.20
2022-12-09T20:58:39.795Z,0.20
2022-12-09T21:01:09.393Z,0.20
2022-12-09T21:03:36.368Z,0.20
2022-12-09T21:06:05.063Z,0.10
2022-12-09T21:08:32.290Z,0.10
2022-12-09T21:11:25.708Z,0.10
2022-12-09T21:13:57.610Z,0.10
2022-12-09T21:16:29.813Z,0.10
2022-12-09T21:19:05.908Z,0.10
2022-12-09T21:21:37.019Z,0.10
2022-12-09T21:24:04.571Z,0.10
2022-12-09T21:26:31.557Z,0.10
2022-12-09T21:29:00.534Z,0.10
2022-12-09T21:31:31.434Z,0.10
2022-12-09T21:34:04.226Z,0.20
2022-12-09T21:36:39.703Z,0.20
2022-12-09T21:39:07.057Z,0.20
2022-12-09T21:41:36.338Z,0.20
2022-12-09T21:44:04.904Z,0.10
2022-12-09T21:46:34.165Z,0.10
2022-12-09T21:49:04.274Z,0.10
2022-12-09T21:51:32.600Z,0.20
2022-12-09T21:53:59.536Z,0.20
2022-12-09T21:56:30.206Z,0.20
2022-12-09T21:58:58.364Z,0.30
2022-12-09T22:01:28.419Z,0.30
2022-12-09T22:03:56.613Z,0.30
2022-12-09T22:06:23.919Z,0.30
2022-12-09T22:08:51.145Z,0.30
2022-12-09T22:11:24.250Z,0.30
2022-12-09T22:13:52.116Z,0.30
2022-12-09T22:16:23.242Z,0.30
2022-12-09T22:18:52.237Z,0.40
2022-12-09T22:21:25.515Z,0.40
2022-12-09T22:23:58.754Z,0.50
2022-12-09T22:26:26.067Z,0.50
2022-12-09T22:28:53.850Z,0.60
2022-12-09T22:31:26.432Z,0.60
2022-12-09T22:33:56.023Z,0.60
2022-12-09T22:36:23.230Z,0.60
2022-12-09T22:38:50.809Z,0.60
2022-12-09T22:41:21.137Z,0.70
2022-12-09T22:43:49.864Z,0.70
2022-12-09T22:46:26.513Z,0.70
2022-12-09T22:48:54.095Z,0.70
2022-12-09T22:51:23.863Z,0.80
2022-12-09T22:53:52.890Z,0.80
2022-12-09T22:56:20.641Z,0.80
2022-12-09T22:58:48.303Z,0.90
2022-12-09T23:01:43.093Z,0.90
2022-12-09T23:04:10.100Z,0.90
2022-12-09T23:06:38.959Z,0.90
2022-12-09T23:09:07.535Z,0.90
2022-12-09T23:11:34.486Z,0.80
2022-12-09T23:14:01.394Z,0.80
2022-12-09T23:16:28.574Z,0.70
2022-12-09T23:18:57.734Z,0.70
2022-12-09T23:21:33.521Z,0.70
2022-12-09T23:24:02.748Z,0.70
2022-12-09T23:26:32.038Z,0.70
2022-12-09T23:29:00.971Z,0.70
2022-12-09T23:31:33.756Z,0.60
2022-12-09T23:34:02.217Z,0.60
2022-12-09T23:36:35.533Z,0.60
2022-12-09T23:39:05.341Z,0.60
2022-12-09T23:41:32.183Z,0.50
2022-12-09T23:43:58.947Z,0.50
2022-12-09T23:46:27.339Z,0.50
2022-12-09T23:48:55.642Z,0.50
2022-12-09T23:51:24.932Z,0.40
2022-12-09T23:53:54.314Z,0.30
2022-12-09T23:56:22.992Z,0.30
2022-12-09T23:58:55.204Z,0.30
